sensor_id;sensor_type;location;lat;lon;timestamp;pressure;altitude;pressure_sealevel;temperature;humidity
6198;BME280;3132;42.622;23.328;2023-05-01T00:02:19;92792.50;;;10.17;91.05
6198;BME280;3132;42.622;23.328;2023-05-01T00:04:44;92796.88;;;10.22;90.70
6198;BME280;3132;42.622;23.328;2023-05-01T00:07:09;92792.59;;;9.92;91.10
6198;BME280;3132;42.622;23.328;2023-05-01T00:09:35;92804.00;;;10.06;91.28
6198;BME280;3132;42.622;23.328;2023-05-01T00:12:00;92789.41;;;10.05;91.07
6198;BME280;3132;42.622;23.328;2023-05-01T00:14:27;92800.25;;;10.27;91.00
6198;BME280;3132;42.622;23.328;2023-05-01T00:16:53;92789.44;;;10.00;91.17
6198;BME280;3132;42.622;23.328;2023-05-01T00:19:18;92792.06;;;9.95;92.73
6198;BME280;3132;42.622;23.328;2023-05-01T00:21:45;92792.59;;;9.97;92.15
6198;BME280;3132;42.622;23.328;2023-05-01T00:24:11;92803.00;;;10.02;92.83
6198;BME280;3132;42.622;23.328;2023-05-01T00:26:36;92808.22;;;9.97;92.74
6198;BME280;3132;42.622;23.328;2023-05-01T00:29:01;92805.13;;;9.90;92.81
6198;BME280;3132;42.622;23.328;2023-05-01T00:31:27;92800.41;;;9.97;92.64
6198;BME280;3132;42.622;23.328;2023-05-01T00:33:52;92805.81;;;10.11;91.75
6198;BME280;3132;42.622;23.328;2023-05-01T00:36:18;92788.94;;;9.93;91.51
6198;BME280;3132;42.622;23.328;2023-05-01T00:38:43;92802.44;;;10.05;91.87
6198;BME280;3132;42.622;23.328;2023-05-01T00:41:10;92801.66;;;10.05;92.25
6198;BME280;3132;42.622;23.328;2023-05-01T00:43:36;92809.78;;;10.08;92.10
6198;BME280;3132;42.622;23.328;2023-05-01T00:46:01;92801.44;;;9.96;92.80
6198;BME280;3132;42.622;23.328;2023-05-01T00:48:27;92809.63;;;9.79;93.85
6198;BME280;3132;42.622;23.328;2023-05-01T00:50:53;92808.31;;;9.82;94.19
6198;BME280;3132;42.622;23.328;2023-05-01T00:53:20;92811.88;;;9.96;93.65
6198;BME280;3132;42.622;23.328;2023-05-01T00:55:46;92808.81;;;9.84;94.09
6198;BME280;3132;42.622;23.328;2023-05-01T00:58:11;92819.75;;;9.91;94.86
6198;BME280;3132;42.622;23.328;2023-05-01T01:00:37;92816.66;;;9.79;94.93
6198;BME280;3132;42.622;23.328;2023-05-01T01:03:03;92833.59;;;9.87;95.47
6198;BME280;3132;42.622;23.328;2023-05-01T01:05:31;92819.50;;;9.82;94.09
6198;BME280;3132;42.622;23.328;2023-05-01T01:08:17;92838.41;;;9.49;95.41
6198;BME280;3132;42.622;23.328;2023-05-01T01:10:55;92833.97;;;9.50;96.05
6198;BME280;3132;42.622;23.328;2023-05-01T01:16:20;92833.44;;;9.63;95.60
6198;BME280;3132;42.622;23.328;2023-05-01T01:21:30;92822.81;;;9.39;98.33
6198;BME280;3132;42.622;23.328;2023-05-01T01:24:25;92826.22;;;9.35;98.19
6198;BME280;3132;42.622;23.328;2023-05-01T01:27:48;92825.72;;;9.28;98.27
6198;BME280;3132;42.622;23.328;2023-05-01T01:33:40;92832.44;;;9.39;97.28
6198;BME280;3132;42.622;23.328;2023-05-01T01:35:38;92830.16;;;9.12;98.56
6198;BME280;3132;42.622;23.328;2023-05-01T01:38:16;92831.75;;;9.13;98.49
6198;BME280;3132;42.622;23.328;2023-05-01T01:41:06;92828.84;;;9.20;98.81
6198;BME280;3132;42.622;23.328;2023-05-01T01:43:37;92841.91;;;9.15;98.28
6198;BME280;3132;42.622;23.328;2023-05-01T01:46:05;92828.38;;;9.08;98.34
6198;BME280;3132;42.622;23.328;2023-05-01T01:48:35;92829.41;;;9.02;99.09
6198;BME280;3132;42.622;23.328;2023-05-01T01:51:05;92836.44;;;9.11;99.05
6198;BME280;3132;42.622;23.328;2023-05-01T01:53:33;92827.88;;;9.01;99.19
6198;BME280;3132;42.622;23.328;2023-05-01T01:56:02;92829.91;;;9.14;98.96
6198;BME280;3132;42.622;23.328;2023-05-01T01:58:29;92824.72;;;9.09;99.31
6198;BME280;3132;42.622;23.328;2023-05-01T02:00:56;92823.69;;;9.10;99.17
6198;BME280;3132;42.622;23.328;2023-05-01T02:03:22;92811.72;;;8.99;99.15
6198;BME280;3132;42.622;23.328;2023-05-01T02:05:49;92826.28;;;9.05;99.91
6198;BME280;3132;42.622;23.328;2023-05-01T02:08:16;92782.56;;;8.97;98.59
6198;BME280;3132;42.622;23.328;2023-05-01T02:10:44;92817.41;;;9.21;98.61
6198;BME280;3132;42.622;23.328;2023-05-01T02:13:12;92823.63;;;9.30;98.69
6198;BME280;3132;42.622;23.328;2023-05-01T02:15:39;92815.56;;;9.21;98.69
6198;BME280;3132;42.622;23.328;2023-05-01T02:18:05;92813.47;;;9.23;98.50
6198;BME280;3132;42.622;23.328;2023-05-01T02:20:32;92811.69;;;9.14;98.63
6198;BME280;3132;42.622;23.328;2023-05-01T02:22:58;92811.47;;;9.00;99.67
6198;BME280;3132;42.622;23.328;2023-05-01T02:25:24;92800.78;;;9.02;99.69
6198;BME280;3132;42.622;23.328;2023-05-01T02:27:56;92812.50;;;8.99;99.90
6198;BME280;3132;42.622;23.328;2023-05-01T02:30:24;92808.06;;;9.00;100.00
6198;BME280;3132;42.622;23.328;2023-05-01T02:32:50;92814.31;;;9.04;99.98
6198;BME280;3132;42.622;23.328;2023-05-01T02:35:15;92814.84;;;8.86;100.00
6198;BME280;3132;42.622;23.328;2023-05-01T02:37:42;92808.38;;;8.83;100.00
6198;BME280;3132;42.622;23.328;2023-05-01T02:40:08;92791.44;;;8.86;100.00
6198;BME280;3132;42.622;23.328;2023-05-01T02:42:36;92815.38;;;8.88;100.00
6198;BME280;3132;42.622;23.328;2023-05-01T02:45:05;92824.47;;;8.95;100.00
6198;BME280;3132;42.622;23.328;2023-05-01T02:47:41;92805.00;;;8.78;100.00
6198;BME280;3132;42.622;23.328;2023-05-01T02:50:08;92816.97;;;8.84;100.00
6198;BME280;3132;42.622;23.328;2023-05-01T02:52:36;92811.75;;;8.79;99.53
6198;BME280;3132;42.622;23.328;2023-05-01T02:55:02;92824.50;;;8.80;100.00
6198;BME280;3132;42.622;23.328;2023-05-01T02:57:27;92819.84;;;8.37;100.00
6198;BME280;3132;42.622;23.328;2023-05-01T02:59:53;92828.41;;;8.63;100.00
6198;BME280;3132;42.622;23.328;2023-05-01T03:02:18;92835.69;;;8.76;100.00
6198;BME280;3132;42.622;23.328;2023-05-01T03:04:44;92833.38;;;8.79;100.00
6198;BME280;3132;42.622;23.328;2023-05-01T03:07:09;92826.84;;;8.77;99.78
6198;BME280;3132;42.622;23.328;2023-05-01T03:09:34;92830.75;;;8.64;100.00
6198;BME280;3132;42.622;23.328;2023-05-01T03:12:00;92828.69;;;8.76;99.38
6198;BME280;3132;42.622;23.328;2023-05-01T03:14:26;92827.66;;;8.62;100.00
6198;BME280;3132;42.622;23.328;2023-05-01T03:16:54;92809.16;;;8.64;100.00
6198;BME280;3132;42.622;23.328;2023-05-01T03:19:19;92829.97;;;8.79;100.00
6198;BME280;3132;42.622;23.328;2023-05-01T03:21:44;92818.25;;;8.66;100.00
6198;BME280;3132;42.622;23.328;2023-05-01T03:24:10;92816.94;;;8.69;100.00
6198;BME280;3132;42.622;23.328;2023-05-01T03:26:35;92818.53;;;8.70;100.00
6198;BME280;3132;42.622;23.328;2023-05-01T03:29:01;92824.25;;;8.52;100.00
6198;BME280;3132;42.622;23.328;2023-05-01T03:31:26;92834.69;;;8.47;100.00
6198;BME280;3132;42.622;23.328;2023-05-01T03:33:51;92832.56;;;8.49;100.00
6198;BME280;3132;42.622;23.328;2023-05-01T03:36:17;92845.31;;;8.50;100.00
6198;BME280;3132;42.622;23.328;2023-05-01T03:38:42;92837.00;;;8.58;100.00
6198;BME280;3132;42.622;23.328;2023-05-01T03:41:08;92849.75;;;8.75;100.00
6198;BME280;3132;42.622;23.328;2023-05-01T03:43:33;92842.72;;;8.75;100.00
6198;BME280;3132;42.622;23.328;2023-05-01T03:45:59;92855.22;;;8.73;100.00
6198;BME280;3132;42.622;23.328;2023-05-01T03:48:24;92848.22;;;8.64;100.00
6198;BME280;3132;42.622;23.328;2023-05-01T03:50:50;92840.91;;;8.81;100.00
6198;BME280;3132;42.622;23.328;2023-05-01T03:53:16;92861.97;;;9.04;100.00
6198;BME280;3132;42.622;23.328;2023-05-01T03:55:41;92863.28;;;8.92;99.82
6198;BME280;3132;42.622;23.328;2023-05-01T03:58:07;92852.34;;;8.85;100.00
6198;BME280;3132;42.622;23.328;2023-05-01T04:00:33;92849.72;;;9.10;100.00
6198;BME280;3132;42.622;23.328;2023-05-01T04:02:58;92853.34;;;9.19;99.08
6198;BME280;3132;42.622;23.328;2023-05-01T04:05:24;92852.31;;;9.15;98.72
6198;BME280;3132;42.622;23.328;2023-05-01T04:07:49;92867.66;;;9.36;98.98
6198;BME280;3132;42.622;23.328;2023-05-01T04:10:15;92873.66;;;9.32;99.71
6198;BME280;3132;42.622;23.328;2023-05-01T04:12:41;92873.59;;;9.47;98.97
6198;BME280;3132;42.622;23.328;2023-05-01T04:15:07;92867.31;;;9.58;98.63
6198;BME280;3132;42.622;23.328;2023-05-01T04:17:34;92870.44;;;9.60;97.36
6198;BME280;3132;42.622;23.328;2023-05-01T04:20:00;92875.88;;;9.73;97.17
6198;BME280;3132;42.622;23.328;2023-05-01T04:22:25;92850.78;;;9.88;95.75
6198;BME280;3132;42.622;23.328;2023-05-01T04:24:51;92866.63;;;10.01;96.04
6198;BME280;3132;42.622;23.328;2023-05-01T04:27:17;92865.28;;;10.14;95.58
6198;BME280;3132;42.622;23.328;2023-05-01T04:29:44;92875.84;;;10.37;94.15
6198;BME280;3132;42.622;23.328;2023-05-01T04:32:09;92866.34;;;10.56;92.93
6198;BME280;3132;42.622;23.328;2023-05-01T04:34:35;92881.03;;;10.81;92.35
6198;BME280;3132;42.622;23.328;2023-05-01T04:37:01;92875.13;;;10.70;92.66
6198;BME280;3132;42.622;23.328;2023-05-01T04:39:27;92880.25;;;10.80;92.52
6198;BME280;3132;42.622;23.328;2023-05-01T04:41:52;92868.19;;;10.89;91.79
6198;BME280;3132;42.622;23.328;2023-05-01T04:44:17;92880.44;;;11.22;90.20
6198;BME280;3132;42.622;23.328;2023-05-01T04:46:43;92833.44;;;10.89;90.66
6198;BME280;3132;42.622;23.328;2023-05-01T04:49:09;92896.66;;;11.19;91.32
6198;BME280;3132;42.622;23.328;2023-05-01T04:51:34;92893.81;;;11.16;91.77
6198;BME280;3132;42.622;23.328;2023-05-01T04:54:00;92892.91;;;11.30;90.68
6198;BME280;3132;42.622;23.328;2023-05-01T04:56:25;92891.59;;;11.57;89.03
6198;BME280;3132;42.622;23.328;2023-05-01T04:58:51;92903.53;;;11.68;88.25
6198;BME280;3132;42.622;23.328;2023-05-01T05:01:16;92900.78;;;11.83;88.14
6198;BME280;3132;42.622;23.328;2023-05-01T05:03:42;92906.28;;;11.53;88.84
6198;BME280;3132;42.622;23.328;2023-05-01T05:06:07;92894.81;;;11.77;87.75
6198;BME280;3132;42.622;23.328;2023-05-01T05:08:33;92902.66;;;12.01;87.78
6198;BME280;3132;42.622;23.328;2023-05-01T05:10:59;92905.91;;;12.35;86.05
6198;BME280;3132;42.622;23.328;2023-05-01T05:13:24;92919.50;;;12.37;84.72
6198;BME280;3132;42.622;23.328;2023-05-01T05:15:50;92915.53;;;12.39;85.38
6198;BME280;3132;42.622;23.328;2023-05-01T05:18:15;92918.44;;;12.38;84.55
6198;BME280;3132;42.622;23.328;2023-05-01T05:20:41;92923.47;;;12.53;84.98
6198;BME280;3132;42.622;23.328;2023-05-01T05:23:06;92926.81;;;12.77;83.78
6198;BME280;3132;42.622;23.328;2023-05-01T05:25:31;92934.16;;;12.93;83.57
6198;BME280;3132;42.622;23.328;2023-05-01T05:27:57;92935.69;;;13.00;83.56
6198;BME280;3132;42.622;23.328;2023-05-01T05:30:25;92939.75;;;14.02;78.72
6198;BME280;3132;42.622;23.328;2023-05-01T05:32:50;92960.56;;;15.81;71.00
6198;BME280;3132;42.622;23.328;2023-05-01T05:35:16;92955.16;;;17.38;64.03
6198;BME280;3132;42.622;23.328;2023-05-01T05:37:42;92966.06;;;19.62;56.18
6198;BME280;3132;42.622;23.328;2023-05-01T05:40:08;92964.69;;;20.78;51.64
6198;BME280;3132;42.622;23.328;2023-05-01T05:42:33;92972.09;;;22.00;48.05
6198;BME280;3132;42.622;23.328;2023-05-01T05:44:59;92973.72;;;25.56;38.99
6198;BME280;3132;42.622;23.328;2023-05-01T05:47:24;92969.31;;;26.30;36.34
6198;BME280;3132;42.622;23.328;2023-05-01T05:49:50;92973.94;;;27.17;34.98
6198;BME280;3132;42.622;23.328;2023-05-01T05:52:15;92978.19;;;27.79;33.34
6198;BME280;3132;42.622;23.328;2023-05-01T05:54:41;92961.88;;;26.93;34.32
6198;BME280;3132;42.622;23.328;2023-05-01T05:57:07;92968.56;;;26.33;35.42
6198;BME280;3132;42.622;23.328;2023-05-01T05:59:33;92963.47;;;26.57;35.86
6198;BME280;3132;42.622;23.328;2023-05-01T06:01:58;92988.94;;;29.00;31.22
6198;BME280;3132;42.622;23.328;2023-05-01T06:04:24;92974.66;;;28.47;32.02
6198;BME280;3132;42.622;23.328;2023-05-01T06:06:49;92985.84;;;27.73;33.67
6198;BME280;3132;42.622;23.328;2023-05-01T06:09:14;92984.66;;;27.17;33.71
6198;BME280;3132;42.622;23.328;2023-05-01T06:11:41;92980.09;;;25.74;35.51
6198;BME280;3132;42.622;23.328;2023-05-01T06:14:06;92978.88;;;25.39;37.15
6198;BME280;3132;42.622;23.328;2023-05-01T06:16:32;92992.16;;;28.05;32.50
6198;BME280;3132;42.622;23.328;2023-05-01T06:18:58;92990.72;;;25.41;36.00
6198;BME280;3132;42.622;23.328;2023-05-01T06:21:24;92978.22;;;21.49;45.35
6198;BME280;3132;42.622;23.328;2023-05-01T06:23:49;92975.00;;;19.37;52.66
6198;BME280;3132;42.622;23.328;2023-05-01T06:26:15;92980.19;;;17.49;59.36
6198;BME280;3132;42.622;23.328;2023-05-01T06:28:40;92970.94;;;15.78;67.37
6198;BME280;3132;42.622;23.328;2023-05-01T06:31:05;92969.09;;;15.21;70.94
6198;BME280;3132;42.622;23.328;2023-05-01T06:33:31;92965.19;;;15.76;69.66
6198;BME280;3132;42.622;23.328;2023-05-01T06:35:56;92971.88;;;15.38;70.60
6198;BME280;3132;42.622;23.328;2023-05-01T06:38:25;92972.00;;;15.55;70.20
6198;BME280;3132;42.622;23.328;2023-05-01T06:40:50;92931.06;;;15.62;68.12
6198;BME280;3132;42.622;23.328;2023-05-01T06:43:16;92970.97;;;15.20;72.38
6198;BME280;3132;42.622;23.328;2023-05-01T06:45:41;92973.84;;;15.32;70.19
6198;BME280;3132;42.622;23.328;2023-05-01T06:48:06;92980.16;;;15.45;70.27
6198;BME280;3132;42.622;23.328;2023-05-01T06:50:32;92973.75;;;15.37;71.19
6198;BME280;3132;42.622;23.328;2023-05-01T06:52:57;92972.03;;;15.19;71.67
6198;BME280;3132;42.622;23.328;2023-05-01T06:55:25;92974.91;;;15.45;71.33
6198;BME280;3132;42.622;23.328;2023-05-01T06:57:50;92976.97;;;14.99;72.02
6198;BME280;3132;42.622;23.328;2023-05-01T07:00:16;92981.06;;;15.40;70.46
6198;BME280;3132;42.622;23.328;2023-05-01T07:02:43;92969.97;;;15.74;69.74
6198;BME280;3132;42.622;23.328;2023-05-01T07:05:09;92986.19;;;15.10;70.99
6198;BME280;3132;42.622;23.328;2023-05-01T07:07:34;92981.00;;;15.54;69.35
6198;BME280;3132;42.622;23.328;2023-05-01T07:10:00;92979.63;;;15.21;71.53
6198;BME280;3132;42.622;23.328;2023-05-01T07:12:26;92981.59;;;15.15;71.21
6198;BME280;3132;42.622;23.328;2023-05-01T07:14:51;92985.53;;;15.84;69.46
6198;BME280;3132;42.622;23.328;2023-05-01T07:17:17;92984.25;;;16.34;66.47
6198;BME280;3132;42.622;23.328;2023-05-01T07:19:42;92986.59;;;16.36;63.50
6198;BME280;3132;42.622;23.328;2023-05-01T07:22:07;92985.25;;;16.16;65.13
6198;BME280;3132;42.622;23.328;2023-05-01T07:24:33;92987.59;;;15.95;65.71
6198;BME280;3132;42.622;23.328;2023-05-01T07:26:58;92988.59;;;16.08;66.97
6198;BME280;3132;42.622;23.328;2023-05-01T07:29:24;92972.97;;;15.81;66.04
6198;BME280;3132;42.622;23.328;2023-05-01T07:31:49;92998.81;;;15.79;69.28
6198;BME280;3132;42.622;23.328;2023-05-01T07:34:15;92993.75;;;16.13;64.53
6198;BME280;3132;42.622;23.328;2023-05-01T07:36:42;92990.28;;;16.04;64.70
6198;BME280;3132;42.622;23.328;2023-05-01T07:39:07;92989.56;;;15.59;66.55
6198;BME280;3132;42.622;23.328;2023-05-01T07:41:33;92989.09;;;16.10;65.05
6198;BME280;3132;42.622;23.328;2023-05-01T07:43:58;92978.16;;;16.25;62.98
6198;BME280;3132;42.622;23.328;2023-05-01T07:46:24;92989.19;;;15.96;64.84
6198;BME280;3132;42.622;23.328;2023-05-01T07:48:49;92984.06;;;16.00;65.29
6198;BME280;3132;42.622;23.328;2023-05-01T07:51:15;92996.78;;;15.98;66.05
6198;BME280;3132;42.622;23.328;2023-05-01T07:53:40;92992.22;;;15.90;65.47
6198;BME280;3132;42.622;23.328;2023-05-01T07:56:07;92993.31;;;15.89;66.70
6198;BME280;3132;42.622;23.328;2023-05-01T07:58:34;92971.34;;;16.24;66.00
6198;BME280;3132;42.622;23.328;2023-05-01T08:01:00;92978.59;;;16.58;64.54
6198;BME280;3132;42.622;23.328;2023-05-01T08:03:29;93002.69;;;16.34;63.01
6198;BME280;3132;42.622;23.328;2023-05-01T08:05:55;92997.84;;;16.50;63.46
6198;BME280;3132;42.622;23.328;2023-05-01T08:08:21;92995.50;;;16.48;63.63
6198;BME280;3132;42.622;23.328;2023-05-01T08:10:47;92990.28;;;16.65;64.49
6198;BME280;3132;42.622;23.328;2023-05-01T08:13:12;92993.00;;;16.99;65.81
6198;BME280;3132;42.622;23.328;2023-05-01T08:15:38;92994.84;;;16.99;62.51
6198;BME280;3132;42.622;23.328;2023-05-01T08:18:06;92976.88;;;16.53;63.80
6198;BME280;3132;42.622;23.328;2023-05-01T08:20:32;92992.00;;;16.78;62.99
6198;BME280;3132;42.622;23.328;2023-05-01T08:22:57;92995.25;;;16.75;61.46
6198;BME280;3132;42.622;23.328;2023-05-01T08:25:23;92990.94;;;16.79;58.62
6198;BME280;3132;42.622;23.328;2023-05-01T08:27:48;92994.88;;;16.51;57.76
6198;BME280;3132;42.622;23.328;2023-05-01T08:30:14;92989.84;;;16.41;62.48
6198;BME280;3132;42.622;23.328;2023-05-01T08:32:40;92999.28;;;16.73;60.94
6198;BME280;3132;42.622;23.328;2023-05-01T08:35:05;93000.47;;;17.14;60.15
6198;BME280;3132;42.622;23.328;2023-05-01T08:37:31;92989.00;;;17.10;59.27
6198;BME280;3132;42.622;23.328;2023-05-01T08:39:56;92990.28;;;16.65;57.40
6198;BME280;3132;42.622;23.328;2023-05-01T08:42:22;92985.69;;;16.96;57.24
6198;BME280;3132;42.622;23.328;2023-05-01T08:44:47;92987.59;;;17.30;57.11
6198;BME280;3132;42.622;23.328;2023-05-01T08:47:16;92990.53;;;17.28;53.14
6198;BME280;3132;42.622;23.328;2023-05-01T08:49:44;92991.47;;;17.07;54.91
6198;BME280;3132;42.622;23.328;2023-05-01T08:52:11;92995.53;;;17.47;57.04
6198;BME280;3132;42.622;23.328;2023-05-01T08:54:44;92989.81;;;17.53;56.64
6198;BME280;3132;42.622;23.328;2023-05-01T08:57:11;92989.16;;;17.91;55.49
6198;BME280;3132;42.622;23.328;2023-05-01T08:59:38;92994.41;;;18.08;53.88
6198;BME280;3132;42.622;23.328;2023-05-01T09:02:07;92989.09;;;18.08;53.01
6198;BME280;3132;42.622;23.328;2023-05-01T09:04:34;92983.88;;;17.74;56.97
6198;BME280;3132;42.622;23.328;2023-05-01T09:07:01;92985.41;;;18.00;53.03
6198;BME280;3132;42.622;23.328;2023-05-01T09:09:27;92986.63;;;18.03;49.20
6198;BME280;3132;42.622;23.328;2023-05-01T09:12:05;92987.72;;;17.93;50.29
6198;BME280;3132;42.622;23.328;2023-05-01T09:14:33;92971.72;;;17.04;53.09
6198;BME280;3132;42.622;23.328;2023-05-01T09:16:59;92982.00;;;17.14;52.96
6198;BME280;3132;42.622;23.328;2023-05-01T09:19:25;92977.69;;;17.70;52.20
6198;BME280;3132;42.622;23.328;2023-05-01T09:21:52;92982.59;;;17.97;50.88
6198;BME280;3132;42.622;23.328;2023-05-01T09:24:18;92989.41;;;18.15;50.22
6198;BME280;3132;42.622;23.328;2023-05-01T09:26:44;92982.34;;;18.27;49.47
6198;BME280;3132;42.622;23.328;2023-05-01T09:29:10;92976.44;;;18.47;48.63
6198;BME280;3132;42.622;23.328;2023-05-01T09:31:35;92989.78;;;18.51;45.96
6198;BME280;3132;42.622;23.328;2023-05-01T09:34:03;92971.66;;;18.24;47.89
6198;BME280;3132;42.622;23.328;2023-05-01T09:36:31;92991.47;;;18.55;49.48
6198;BME280;3132;42.622;23.328;2023-05-01T09:38:57;92990.63;;;18.17;50.13
6198;BME280;3132;42.622;23.328;2023-05-01T09:41:25;92984.88;;;18.15;50.03
6198;BME280;3132;42.622;23.328;2023-05-01T09:43:53;92989.22;;;18.28;50.10
6198;BME280;3132;42.622;23.328;2023-05-01T09:46:19;92977.75;;;18.07;50.77
6198;BME280;3132;42.622;23.328;2023-05-01T09:48:52;92989.25;;;18.11;50.84
6198;BME280;3132;42.622;23.328;2023-05-01T09:51:28;92987.63;;;17.73;52.17
6198;BME280;3132;42.622;23.328;2023-05-01T09:53:55;92993.06;;;17.59;51.12
6198;BME280;3132;42.622;23.328;2023-05-01T09:56:22;92978.88;;;17.29;54.71
6198;BME280;3132;42.622;23.328;2023-05-01T09:58:52;92983.13;;;17.56;50.71
6198;BME280;3132;42.622;23.328;2023-05-01T10:01:36;92973.63;;;17.63;50.77
6198;BME280;3132;42.622;23.328;2023-05-01T10:04:02;92965.72;;;17.55;50.10
6198;BME280;3132;42.622;23.328;2023-05-01T10:06:28;92965.69;;;17.29;53.62
6198;BME280;3132;42.622;23.328;2023-05-01T10:08:53;92970.66;;;17.31;52.04
6198;BME280;3132;42.622;23.328;2023-05-01T10:11:19;92968.19;;;17.77;49.46
6198;BME280;3132;42.622;23.328;2023-05-01T10:13:45;92978.44;;;17.70;49.67
6198;BME280;3132;42.622;23.328;2023-05-01T10:16:28;92969.25;;;17.42;49.96
6198;BME280;3132;42.622;23.328;2023-05-01T10:18:58;92970.25;;;17.46;50.02
6198;BME280;3132;42.622;23.328;2023-05-01T10:21:24;92971.16;;;17.24;50.64
6198;BME280;3132;42.622;23.328;2023-05-01T10:23:51;92971.75;;;17.30;51.53
6198;BME280;3132;42.622;23.328;2023-05-01T10:26:17;92961.66;;;16.98;54.92
6198;BME280;3132;42.622;23.328;2023-05-01T10:28:45;92965.84;;;17.33;51.98
6198;BME280;3132;42.622;23.328;2023-05-01T10:31:11;92966.47;;;17.21;52.11
6198;BME280;3132;42.622;23.328;2023-05-01T10:33:41;92969.56;;;17.23;53.27
6198;BME280;3132;42.622;23.328;2023-05-01T10:36:14;92969.72;;;17.35;52.21
6198;BME280;3132;42.622;23.328;2023-05-01T10:38:42;92966.19;;;17.57;50.98
6198;BME280;3132;42.622;23.328;2023-05-01T10:41:12;92962.59;;;17.70;51.95
6198;BME280;3132;42.622;23.328;2023-05-01T10:43:38;92961.78;;;18.04;50.24
6198;BME280;3132;42.622;23.328;2023-05-01T10:53:32;92969.84;;;18.91;48.37
6198;BME280;3132;42.622;23.328;2023-05-01T10:55:58;92976.38;;;18.85;48.21
6198;BME280;3132;42.622;23.328;2023-05-01T11:03:51;92972.47;;;18.91;44.95
6198;BME280;3132;42.622;23.328;2023-05-01T11:06:16;92961.44;;;18.89;48.00
6198;BME280;3132;42.622;23.328;2023-05-01T11:08:42;92939.19;;;18.61;49.44
6198;BME280;3132;42.622;23.328;2023-05-01T11:16:45;92973.94;;;18.80;50.73
6198;BME280;3132;42.622;23.328;2023-05-01T11:21:47;92962.56;;;18.50;52.04
6198;BME280;3132;42.622;23.328;2023-05-01T11:24:13;92955.09;;;18.81;50.62
6198;BME280;3132;42.622;23.328;2023-05-01T11:26:39;92964.22;;;19.42;48.94
6198;BME280;3132;42.622;23.328;2023-05-01T11:29:10;92973.97;;;19.50;47.22
6198;BME280;3132;42.622;23.328;2023-05-01T11:31:36;92975.69;;;19.67;45.48
6198;BME280;3132;42.622;23.328;2023-05-01T11:34:02;92975.00;;;19.58;47.78
6198;BME280;3132;42.622;23.328;2023-05-01T11:36:29;92980.63;;;19.56;47.73
6198;BME280;3132;42.622;23.328;2023-05-01T11:38:58;92970.84;;;19.28;48.75
6198;BME280;3132;42.622;23.328;2023-05-01T11:41:27;92972.63;;;19.15;49.11
6198;BME280;3132;42.622;23.328;2023-05-01T11:43:54;92975.38;;;18.98;49.03
6198;BME280;3132;42.622;23.328;2023-05-01T11:46:27;92963.72;;;18.70;51.24
6198;BME280;3132;42.622;23.328;2023-05-01T11:48:54;92961.66;;;18.75;51.09
6198;BME280;3132;42.622;23.328;2023-05-01T11:51:20;92965.88;;;18.68;49.97
6198;BME280;3132;42.622;23.328;2023-05-01T11:54:07;92962.94;;;18.32;51.60
6198;BME280;3132;42.622;23.328;2023-05-01T11:56:39;92971.16;;;18.39;50.73
6198;BME280;3132;42.622;23.328;2023-05-01T11:59:14;92974.41;;;18.44;49.76
6198;BME280;3132;42.622;23.328;2023-05-01T12:01:44;92970.84;;;18.40;49.34
6198;BME280;3132;42.622;23.328;2023-05-01T12:04:11;92966.84;;;18.17;49.42
6198;BME280;3132;42.622;23.328;2023-05-01T12:06:39;92976.00;;;18.20;47.73
6198;BME280;3132;42.622;23.328;2023-05-01T12:09:22;92977.69;;;18.24;48.15
6198;BME280;3132;42.622;23.328;2023-05-01T12:11:51;92979.59;;;18.24;47.00
6198;BME280;3132;42.622;23.328;2023-05-01T12:14:18;92990.53;;;18.05;50.42
6198;BME280;3132;42.622;23.328;2023-05-01T12:16:44;92996.78;;;17.75;51.31
6198;BME280;3132;42.622;23.328;2023-05-01T12:19:12;92991.31;;;17.89;50.66
6198;BME280;3132;42.622;23.328;2023-05-01T12:21:38;92998.31;;;17.85;51.02
6198;BME280;3132;42.622;23.328;2023-05-01T12:24:11;92993.41;;;18.38;50.37
6198;BME280;3132;42.622;23.328;2023-05-01T12:26:39;92989.59;;;18.01;50.64
6198;BME280;3132;42.622;23.328;2023-05-01T12:29:05;92994.50;;;18.20;49.99
6198;BME280;3132;42.622;23.328;2023-05-01T12:31:33;92985.25;;;17.97;50.02
6198;BME280;3132;42.622;23.328;2023-05-01T12:34:03;92994.34;;;18.25;48.30
6198;BME280;3132;42.622;23.328;2023-05-01T12:36:32;92993.41;;;18.38;48.23
6198;BME280;3132;42.622;23.328;2023-05-01T12:39:10;92987.59;;;17.90;49.45
6198;BME280;3132;42.622;23.328;2023-05-01T12:41:41;93000.91;;;18.10;49.18
6198;BME280;3132;42.622;23.328;2023-05-01T12:44:17;92999.19;;;18.69;48.93
6198;BME280;3132;42.622;23.328;2023-05-01T12:49:24;92996.66;;;18.72;45.89
6198;BME280;3132;42.622;23.328;2023-05-01T12:51:51;92994.09;;;18.55;48.54
6198;BME280;3132;42.622;23.328;2023-05-01T12:54:38;92995.97;;;17.92;49.51
6198;BME280;3132;42.622;23.328;2023-05-01T12:57:14;92994.91;;;17.76;49.48
6198;BME280;3132;42.622;23.328;2023-05-01T12:59:41;92981.22;;;17.82;47.24
6198;BME280;3132;42.622;23.328;2023-05-01T13:02:09;92990.06;;;17.95;48.85
6198;BME280;3132;42.622;23.328;2023-05-01T13:04:35;92986.56;;;18.20;45.54
6198;BME280;3132;42.622;23.328;2023-05-01T13:07:10;92978.47;;;18.33;45.38
6198;BME280;3132;42.622;23.328;2023-05-01T13:09:35;92996.16;;;18.50;46.28
6198;BME280;3132;42.622;23.328;2023-05-01T13:12:02;92993.00;;;18.94;43.64
6198;BME280;3132;42.622;23.328;2023-05-01T13:14:39;93001.19;;;19.01;45.27
6198;BME280;3132;42.622;23.328;2023-05-01T13:17:06;92996.19;;;19.08;45.59
6198;BME280;3132;42.622;23.328;2023-05-01T13:19:32;92992.25;;;18.85;46.94
6198;BME280;3132;42.622;23.328;2023-05-01T13:21:58;92990.88;;;18.79;46.50
6198;BME280;3132;42.622;23.328;2023-05-01T13:24:34;92998.00;;;18.58;48.81
6198;BME280;3132;42.622;23.328;2023-05-01T13:26:59;92995.09;;;18.34;50.43
6198;BME280;3132;42.622;23.328;2023-05-01T13:29:26;92996.66;;;18.26;52.30
6198;BME280;3132;42.622;23.328;2023-05-01T13:31:52;92988.00;;;18.17;53.28
6198;BME280;3132;42.622;23.328;2023-05-01T13:34:25;92991.84;;;18.28;52.15
6198;BME280;3132;42.622;23.328;2023-05-01T13:36:54;93001.47;;;18.33;51.88
6198;BME280;3132;42.622;23.328;2023-05-01T13:39:21;93000.78;;;17.98;51.21
6198;BME280;3132;42.622;23.328;2023-05-01T13:41:47;92996.16;;;17.78;51.91
6198;BME280;3132;42.622;23.328;2023-05-01T13:44:13;93006.28;;;17.50;58.50
6198;BME280;3132;42.622;23.328;2023-05-01T13:46:40;92994.44;;;17.22;53.01